createdAt,value
2022-11-15T00:00:51.054Z,98438.47
2022-11-15T00:03:18.165Z,98440.22
2022-11-15T00:05:45.273Z,98430.81
2022-11-15T00:08:12.458Z,98423.94
2022-11-15T00:10:39.600Z,98430.81
2022-11-15T00:13:06.851Z,98424.78
2022-11-15T00:15:33.905Z,98429.03
2022-11-15T00:18:00.986Z,98428.28
2022-11-15T00:20:28.041Z,98429.97
2022-11-15T00:22:55.093Z,98432.47
2022-11-15T00:25:22.181Z,98436.81
2022-11-15T00:27:49.254Z,98436.00
2022-11-15T00:30:16.360Z,98430.69
2022-11-15T00:32:43.413Z,98424.78
2022-11-15T00:35:10.483Z,98428.28
2022-11-15T00:37:37.609Z,98423.94
2022-11-15T00:40:04.684Z,98429.03
2022-11-15T00:42:31.753Z,98419.69
2022-11-15T00:44:58.826Z,98422.22
2022-11-15T00:47:25.905Z,98423.13
2022-11-15T00:49:52.975Z,98423.13
2022-11-15T00:52:20.029Z,98425.72
2022-11-15T00:54:47.103Z,98426.66
2022-11-15T00:57:14.176Z,98424.88
2022-11-15T00:59:41.235Z,98418.88
2022-11-15T01:02:08.305Z,98408.50
2022-11-15T01:04:35.376Z,98409.44
2022-11-15T01:07:02.485Z,98412.94
2022-11-15T01:09:29.599Z,98409.44
2022-11-15T01:11:56.659Z,98406.84
2022-11-15T01:14:25.510Z,98407.69
2022-11-15T01:16:52.954Z,98403.44
2022-11-15T01:19:20.009Z,98403.44
2022-11-15T01:21:47.134Z,98400.00
2022-11-15T01:24:14.190Z,98411.41
2022-11-15T01:26:41.294Z,98398.25
2022-11-15T01:29:08.406Z,98407.78
2022-11-15T01:31:35.493Z,98400.00
2022-11-15T01:34:02.557Z,98400.00
2022-11-15T01:36:29.644Z,98393.28
2022-11-15T01:38:56.726Z,98394.94
2022-11-15T01:41:23.785Z,98390.69
2022-11-15T01:43:50.881Z,98390.69
2022-11-15T01:46:17.943Z,98386.44
2022-11-15T01:48:45.007Z,98376.91
2022-11-15T01:51:12.087Z,98379.50
2022-11-15T01:53:39.137Z,98374.22
2022-11-15T01:56:06.224Z,98363.97
2022-11-15T01:58:33.368Z,98366.44
2022-11-15T02:01:00.493Z,98356.28
2022-11-15T02:03:27.732Z,98354.50
2022-11-15T02:05:54.899Z,98348.63
2022-11-15T02:08:22.029Z,98348.41
2022-11-15T02:10:49.177Z,98345.84
2022-11-15T02:13:16.239Z,98344.25
2022-11-15T02:15:43.337Z,98349.31
2022-11-15T02:18:11.673Z,98343.44
2022-11-15T02:20:38.737Z,98349.31
2022-11-15T02:23:05.798Z,98351.09
2022-11-15T02:25:32.865Z,98343.31
2022-11-15T02:27:59.927Z,98343.31
2022-11-15T02:30:27.031Z,98344.25
2022-11-15T02:32:54.148Z,98339.09
2022-11-15T02:35:21.206Z,98335.56
2022-11-15T02:37:48.288Z,98329.53
2022-11-15T02:40:15.400Z,98331.31
2022-11-15T02:43:04.442Z,98327.97
2022-11-15T02:45:35.215Z,98321.91
2022-11-15T02:48:02.278Z,98311.41
2022-11-15T02:50:29.379Z,98308.13
2022-11-15T02:52:56.467Z,98309.84
2022-11-15T02:55:23.533Z,98309.03
2022-11-15T02:57:50.609Z,98314.13
2022-11-15T03:00:17.687Z,98297.75
2022-11-15T03:02:44.821Z,98295.25
2022-11-15T03:05:11.903Z,98293.59
2022-11-15T03:07:39.018Z,98285.00
2022-11-15T03:10:06.111Z,98284.19
2022-11-15T03:12:33.182Z,98291.84
2022-11-15T03:15:00.247Z,98284.06
2022-11-15T03:17:27.349Z,98278.88
2022-11-15T03:19:54.700Z,98283.25
2022-11-15T03:22:21.770Z,98290.19
2022-11-15T03:24:49.014Z,98281.47
2022-11-15T03:27:16.110Z,98282.31
2022-11-15T03:29:43.194Z,98272.88
2022-11-15T03:32:10.276Z,98268.66
2022-11-15T03:34:37.335Z,98268.66
2022-11-15T03:37:04.420Z,98270.38
2022-11-15T03:39:31.539Z,98273.72
2022-11-15T03:41:58.621Z,98273.91
2022-11-15T03:44:25.697Z,98269.47
2022-11-15T03:46:52.765Z,98269.47
2022-11-15T03:49:19.900Z,98267.91
2022-11-15T03:51:46.961Z,98264.50
2022-11-15T03:54:14.067Z,98256.84
2022-11-15T03:56:41.135Z,98255.06
2022-11-15T03:59:08.203Z,98252.38
2022-11-15T04:01:35.322Z,98255.69
2022-11-15T04:04:02.431Z,98264.28
2022-11-15T04:06:29.582Z,98260.88
2022-11-15T04:08:56.650Z,98261.91
2022-11-15T04:11:23.721Z,98262.72
2022-11-15T04:13:50.868Z,98269.66
2022-11-15T04:16:17.929Z,98266.34
2022-11-15T04:18:44.989Z,98263.75
2022-11-15T04:21:30.806Z,98262.84
2022-11-15T04:24:13.303Z,98255.16
2022-11-15T04:26:40.519Z,98246.69
2022-11-15T04:29:26.156Z,98251.13
2022-11-15T04:31:53.214Z,98253.63
2022-11-15T04:34:20.291Z,98260.44
2022-11-15T04:37:06.178Z,98260.34
2022-11-15T04:39:33.242Z,98249.28
2022-11-15T04:42:00.322Z,98240.69
2022-11-15T04:44:27.396Z,98242.31
2022-11-15T04:46:54.490Z,98238.19
2022-11-15T04:49:21.547Z,98234.66
2022-11-15T04:51:49.011Z,98238.09
2022-11-15T04:54:16.134Z,98233.81
2022-11-15T04:56:43.206Z,98241.59
2022-11-15T04:59:10.298Z,98229.38
2022-11-15T05:01:41.940Z,98227.72
2022-11-15T05:04:21.053Z,98220.78
2022-11-15T05:06:48.186Z,98214.88
2022-11-15T05:09:15.646Z,98218.41
2022-11-15T05:11:42.710Z,98211.44
2022-11-15T05:14:09.819Z,98218.28
2022-11-15T05:16:36.926Z,98214.03
2022-11-15T05:19:04.214Z,98203.81
2022-11-15T05:21:31.374Z,98213.94
2022-11-15T05:23:58.453Z,98217.66
2022-11-15T05:26:25.532Z,98212.59
2022-11-15T05:28:52.609Z,98212.47
2022-11-15T05:31:19.674Z,98219.34
2022-11-15T05:33:46.807Z,98219.34
2022-11-15T05:36:13.878Z,98207.31
2022-11-15T05:38:40.940Z,98212.28
2022-11-15T05:41:08.013Z,98201.22
2022-11-15T05:43:35.099Z,98200.47
2022-11-15T05:46:02.171Z,98202.25
2022-11-15T05:48:29.247Z,98205.66
2022-11-15T05:50:56.306Z,98198.81
2022-11-15T05:53:23.377Z,98190.13
2022-11-15T05:55:50.481Z,98197.88
2022-11-15T05:58:17.556Z,98203.06
2022-11-15T06:00:44.638Z,98198.81
2022-11-15T06:03:11.765Z,98201.31
2022-11-15T06:05:38.848Z,98196.25
2022-11-15T06:08:05.978Z,98191.06
2022-11-15T06:10:33.078Z,98192.81
2022-11-15T06:13:00.242Z,98197.06
2022-11-15T06:15:27.315Z,98192.72
2022-11-15T06:17:58.288Z,98193.53
2022-11-15T06:20:25.355Z,98190.94
2022-11-15T06:22:52.458Z,98195.28
2022-11-15T06:25:19.514Z,98195.28
2022-11-15T06:27:46.577Z,98216.94
2022-11-15T06:30:13.651Z,98216.00
2022-11-15T06:32:40.720Z,98217.78
2022-11-15T06:35:07.770Z,98219.53
2022-11-15T06:37:34.841Z,98220.38
2022-11-15T06:40:01.901Z,98219.53
2022-11-15T06:42:29.015Z,98219.53
2022-11-15T06:44:56.292Z,98221.19
2022-11-15T06:47:23.363Z,98210.00
2022-11-15T06:49:50.431Z,98214.25
2022-11-15T06:52:19.505Z,98207.41
2022-11-15T06:54:46.565Z,98210.94
2022-11-15T06:57:13.701Z,98205.84
2022-11-15T06:59:41.017Z,98202.34
2022-11-15T07:02:08.123Z,98206.59
2022-11-15T07:04:35.786Z,98202.44
2022-11-15T07:07:03.138Z,98200.59
2022-11-15T07:09:30.228Z,98207.53
2022-11-15T07:11:57.281Z,98198.91
2022-11-15T07:14:24.355Z,98204.09
2022-11-15T07:16:51.434Z,98202.34
2022-11-15T07:19:18.713Z,98196.31
2022-11-15T07:21:45.800Z,98187.72
2022-11-15T07:24:12.884Z,98181.72
2022-11-15T07:26:39.951Z,98185.97
2022-11-15T07:29:07.022Z,98185.97
2022-11-15T07:31:34.251Z,98190.25
2022-11-15T07:34:01.726Z,98193.75
2022-11-15T07:36:30.582Z,98193.66
2022-11-15T07:38:57.644Z,98191.06
2022-11-15T07:41:24.721Z,98192.72
2022-11-15T07:43:51.792Z,98186.59
2022-11-15T07:46:18.906Z,98189.28
2022-11-15T07:48:46.027Z,98193.66
2022-11-15T07:51:14.270Z,98196.25
2022-11-15T07:53:41.623Z,98192.72
2022-11-15T07:56:08.750Z,98190.25
2022-11-15T07:58:35.940Z,98191.75
2022-11-15T08:01:03.117Z,98184.81
2022-11-15T08:03:30.666Z,98189.19
2022-11-15T08:05:57.949Z,98192.38
2022-11-15T08:08:25.114Z,98190.84
2022-11-15T08:10:52.243Z,98186.50
2022-11-15T08:13:19.430Z,98175.31
2022-11-15T08:15:46.529Z,98181.31
2022-11-15T08:18:13.680Z,98188.25
2022-11-15T08:20:40.752Z,98183.09
2022-11-15T08:23:07.814Z,98184.00
2022-11-15T08:25:34.938Z,98182.97
2022-11-15T08:28:02.139Z,98179.16
2022-11-15T08:30:29.417Z,98180.06
2022-11-15T08:32:56.508Z,98181.94
2022-11-15T08:35:28.656Z,98174.25
2022-11-15T08:37:56.198Z,98181.19
2022-11-15T08:40:23.829Z,98182.03
2022-11-15T08:42:50.934Z,98182.16
2022-11-15T08:45:18.012Z,98170.75
2022-11-15T08:47:47.423Z,98176.66
2022-11-15T08:50:18.266Z,98172.41
2022-11-15T08:52:45.402Z,98165.47
2022-11-15T08:55:12.490Z,98165.34
2022-11-15T08:57:39.559Z,98159.34
2022-11-15T09:00:06.637Z,98152.31
2022-11-15T09:02:33.725Z,98159.25
2022-11-15T09:05:00.933Z,98154.06
2022-11-15T09:07:30.904Z,98160.91
2022-11-15T09:09:58.104Z,98155.94
2022-11-15T09:12:25.191Z,98151.47
2022-11-15T09:14:52.304Z,98144.41
2022-11-15T09:17:24.483Z,98135.94
2022-11-15T09:19:52.198Z,98129.81
2022-11-15T09:22:19.311Z,98139.34
2022-11-15T09:24:46.389Z,98129.69
2022-11-15T09:27:14.260Z,98132.19
2022-11-15T09:29:41.394Z,98133.97
2022-11-15T09:32:08.489Z,98123.59
2022-11-15T09:34:35.658Z,98130.44
2022-11-15T09:37:02.744Z,98124.31
2022-11-15T09:39:29.854Z,98122.53
2022-11-15T09:41:57.034Z,98119.13
2022-11-15T09:44:25.503Z,98111.38
2022-11-15T09:46:52.894Z,98106.19
2022-11-15T09:49:19.990Z,98108.78
2022-11-15T09:51:51.008Z,98113.75
2022-11-15T09:54:51.128Z,98112.81
2022-11-15T09:57:05.234Z,98107.63
2022-11-15T09:59:32.538Z,98104.94
2022-11-15T10:01:59.638Z,98105.63
2022-11-15T10:04:26.705Z,98103.06
2022-11-15T10:06:53.817Z,98096.09
2022-11-15T10:09:23.758Z,98094.34
2022-11-15T10:11:51.040Z,98096.84
2022-11-15T10:14:18.110Z,98088.84
2022-11-15T10:16:45.203Z,98074.22
2022-11-15T10:19:12.351Z,98066.44
2022-11-15T10:21:39.455Z,98063.56
2022-11-15T10:24:06.551Z,98062.59
2022-11-15T10:26:33.683Z,98062.69
2022-11-15T10:29:00.749Z,98057.53
2022-11-15T10:31:28.548Z,98050.69
2022-11-15T10:33:55.625Z,98049.75
2022-11-15T10:36:23.175Z,98041.88
2022-11-15T10:38:50.366Z,98045.16
2022-11-15T10:41:17.441Z,98035.06
2022-11-15T10:43:44.538Z,98024.56
2022-11-15T10:46:31.804Z,98025.53
2022-11-15T10:48:58.760Z,98023.63
2022-11-15T10:51:29.120Z,98026.13
2022-11-15T10:53:56.207Z,98015.16
2022-11-15T10:56:23.350Z,98017.53
2022-11-15T10:58:50.422Z,98016.59
2022-11-15T11:01:17.675Z,98008.91
2022-11-15T11:03:44.850Z,97998.53
2022-11-15T11:06:12.012Z,98003.63
2022-11-15T11:08:39.088Z,98000.91
2022-11-15T11:11:06.197Z,97997.50
2022-11-15T11:13:33.322Z,97992.22
2022-11-15T11:16:00.440Z,97989.72
2022-11-15T11:18:28.423Z,97993.13
2022-11-15T11:20:55.498Z,97993.97
2022-11-15T11:23:22.833Z,97986.44
2022-11-15T11:25:49.891Z,97990.47
2022-11-15T11:28:17.009Z,97984.44
2022-11-15T11:30:44.082Z,97978.31
2022-11-15T11:33:11.149Z,97975.59
2022-11-15T11:35:38.236Z,97977.38
2022-11-15T11:38:05.761Z,97973.75
2022-11-15T11:40:33.087Z,97965.97
2022-11-15T11:43:00.849Z,97957.38
2022-11-15T11:45:27.936Z,97952.19
2022-11-15T11:47:55.015Z,97953.00
2022-11-15T11:50:22.127Z,97949.34
2022-11-15T11:52:49.193Z,97955.38
2022-11-15T11:55:16.520Z,97944.16
2022-11-15T11:57:43.788Z,97946.66
2022-11-15T12:00:10.849Z,97941.56
2022-11-15T12:02:38.038Z,97944.06
2022-11-15T12:05:05.226Z,97927.56
2022-11-15T12:07:32.455Z,97933.72
2022-11-15T12:09:59.908Z,97936.19
2022-11-15T12:12:26.969Z,97930.91
2022-11-15T12:14:54.145Z,97929.94
2022-11-15T12:17:21.475Z,97924.88
2022-11-15T12:19:48.588Z,97930.78
2022-11-15T12:22:15.662Z,97933.34
2022-11-15T12:24:42.843Z,97922.16
2022-11-15T12:27:09.927Z,97924.75
2022-11-15T12:29:37.111Z,97917.69
2022-11-15T12:32:06.001Z,97923.81
2022-11-15T12:34:33.067Z,97917.69
2022-11-15T12:37:02.732Z,97917.69
2022-11-15T12:39:29.791Z,97922.03
2022-11-15T12:41:56.888Z,97916.16
2022-11-15T12:44:23.965Z,97910.75
2022-11-15T12:46:51.026Z,97913.34
2022-11-15T12:49:18.090Z,97909.22
2022-11-15T12:51:45.166Z,97904.72
2022-11-15T12:54:12.234Z,97904.72
2022-11-15T12:56:41.258Z,97899.53
2022-11-15T12:59:08.325Z,97896.03
2022-11-15T13:01:36.272Z,97894.34
2022-11-15T13:04:03.679Z,97895.09
2022-11-15T13:06:30.996Z,97889.91
2022-11-15T13:08:58.083Z,97892.50
2022-11-15T13:11:25.186Z,97895.09
2022-11-15T13:13:52.281Z,97895.09
2022-11-15T13:16:19.363Z,97887.91
2022-11-15T13:18:46.478Z,97884.38
2022-11-15T13:21:33.514Z,97886.25
2022-11-15T13:24:00.604Z,97875.06
2022-11-15T13:26:27.690Z,97873.31
2022-11-15T13:28:56.679Z,97869.88
2022-11-15T13:31:23.848Z,97868.94
2022-11-15T13:33:50.968Z,97855.16
2022-11-15T13:36:18.042Z,97866.22
2022-11-15T13:38:45.161Z,97852.44
2022-11-15T13:41:12.257Z,97854.34
2022-11-15T13:43:39.660Z,97845.50
2022-11-15T13:46:06.733Z,97840.22
2022-11-15T13:48:34.973Z,97845.38
2022-11-15T13:51:02.134Z,97834.75
2022-11-15T13:53:29.233Z,97831.47
2022-11-15T13:55:56.365Z,97835.13
2022-11-15T13:58:24.341Z,97828.16
2022-11-15T14:00:54.372Z,97831.59
2022-11-15T14:03:21.514Z,97831.34
2022-11-15T14:05:48.668Z,97826.97
2022-11-15T14:08:15.731Z,97826.88
2022-11-15T14:10:42.840Z,97823.47
2022-11-15T14:13:09.908Z,97830.16
2022-11-15T14:15:37.019Z,97827.34
2022-11-15T14:18:04.099Z,97816.88
2022-11-15T14:20:31.883Z,97819.56
2022-11-15T14:22:59.006Z,97822.38
2022-11-15T14:25:26.281Z,97817.09
2022-11-15T14:27:53.431Z,97825.69
2022-11-15T14:30:20.578Z,97821.47
2022-11-15T14:32:47.707Z,97820.66
2022-11-15T14:35:14.867Z,97806.97
2022-11-15T14:37:41.922Z,97805.91
2022-11-15T14:40:10.769Z,97800.97
2022-11-15T14:42:37.820Z,97799.19
2022-11-15T14:45:04.907Z,97805.09
2022-11-15T14:47:32.019Z,97799.06
2022-11-15T14:49:59.109Z,97794.00
2022-11-15T14:52:31.838Z,97792.38
2022-11-15T14:55:01.083Z,97792.13
2022-11-15T14:57:28.157Z,97781.78
2022-11-15T14:59:55.233Z,97784.22
2022-11-15T15:02:22.359Z,97790.09
2022-11-15T15:04:49.465Z,97775.50
2022-11-15T15:07:16.695Z,97779.88
2022-11-15T15:09:43.882Z,97779.88
2022-11-15T15:12:10.951Z,97767.84
2022-11-15T15:14:38.016Z,97763.63
2022-11-15T15:17:05.835Z,97764.31
2022-11-15T15:19:33.127Z,97760.09
2022-11-15T15:22:00.262Z,97751.34
2022-11-15T15:24:27.314Z,97748.75
2022-11-15T15:26:54.393Z,97744.28
2022-11-15T15:29:21.456Z,97745.13
2022-11-15T15:31:48.540Z,97743.44
2022-11-15T15:34:16.981Z,97748.63
2022-11-15T15:36:44.242Z,97752.91
2022-11-15T15:39:12.183Z,97753.00
2022-11-15T15:41:39.283Z,97746.88
2022-11-15T15:44:06.338Z,97751.34
2022-11-15T15:46:33.484Z,97752.31
2022-11-15T15:49:00.600Z,97752.53
2022-11-15T15:51:27.712Z,97753.59
2022-11-15T15:53:58.146Z,97761.03
2022-11-15T15:56:25.473Z,97752.69
2022-11-15T15:58:53.569Z,97749.59
2022-11-15T16:01:20.821Z,97748.19
2022-11-15T16:03:47.986Z,97750.78
2022-11-15T16:06:15.446Z,97747.50
2022-11-15T16:09:08.356Z,97745.22
2022-11-15T16:11:29.566Z,97744.41
2022-11-15T16:13:56.639Z,97739.13
2022-11-15T16:16:23.789Z,97741.94
2022-11-15T16:18:51.351Z,97736.63
2022-11-15T16:21:18.417Z,97734.75
2022-11-15T16:23:45.512Z,97742.63
2022-11-15T16:26:12.599Z,97730.63
2022-11-15T16:28:39.722Z,97741.13
2022-11-15T16:31:06.778Z,97730.47
2022-11-15T16:33:34.391Z,97734.03
2022-11-15T16:36:01.681Z,97734.75
2022-11-15T16:38:28.804Z,97733.44
2022-11-15T16:40:55.968Z,97733.31
2022-11-15T16:43:23.095Z,97730.34
2022-11-15T16:45:50.156Z,97725.66
2022-11-15T16:48:17.308Z,97720.84
2022-11-15T16:50:44.369Z,97722.84
2022-11-15T16:53:11.449Z,97720.25
2022-11-15T16:55:38.541Z,97713.63
2022-11-15T16:58:05.619Z,97710.91
2022-11-15T17:00:32.721Z,97709.28
2022-11-15T17:02:59.919Z,97711.88
2022-11-15T17:05:30.059Z,97708.69
2022-11-15T17:07:57.126Z,97701.50
2022-11-15T17:10:24.261Z,97698.81
2022-11-15T17:12:51.408Z,97701.25
2022-11-15T17:15:18.507Z,97693.63
2022-11-15T17:17:45.644Z,97689.59
2022-11-15T17:20:12.713Z,97684.06
2022-11-15T17:22:39.793Z,97680.53
2022-11-15T17:25:07.163Z,97682.28
2022-11-15T17:27:34.380Z,97676.97
2022-11-15T17:30:01.471Z,97676.28
2022-11-15T17:32:28.570Z,97674.16
2022-11-15T17:34:55.629Z,97673.31
2022-11-15T17:37:22.707Z,97668.13
2022-11-15T17:39:49.816Z,97670.28
2022-11-15T17:42:16.922Z,97669.81
2022-11-15T17:44:44.259Z,97666.03
2022-11-15T17:47:11.537Z,97665.41
2022-11-15T17:49:40.806Z,97663.97
2022-11-15T17:52:08.119Z,97661.59
2022-11-15T17:54:35.901Z,97658.53
2022-11-15T17:57:02.984Z,97653.16
2022-11-15T17:59:30.096Z,97653.97
2022-11-15T18:01:57.190Z,97651.63
2022-11-15T18:04:28.312Z,97651.88
2022-11-15T18:06:56.613Z,97647.38
2022-11-15T18:09:24.824Z,97637.94
2022-11-15T18:11:53.563Z,97635.00
2022-11-15T18:14:20.714Z,97630.25
2022-11-15T18:16:47.857Z,97631.78
2022-11-15T18:19:15.231Z,97623.84
2022-11-15T18:21:57.477Z,97620.34
2022-11-15T18:24:24.699Z,97626.59
2022-11-15T18:26:51.920Z,97622.34
2022-11-15T18:29:19.809Z,97621.25
2022-11-15T18:31:50.053Z,97620.59
2022-11-15T18:34:17.666Z,97611.69
2022-11-15T18:36:44.725Z,97614.19
2022-11-15T18:39:16.454Z,97613.94
2022-11-15T18:41:43.693Z,97608.75
2022-11-15T18:44:10.807Z,97602.44
2022-11-15T18:46:39.327Z,97601.22
2022-11-15T18:49:07.700Z,97607.47
2022-11-15T18:51:34.830Z,97608.44
2022-11-15T18:54:01.933Z,97599.69
2022-11-15T18:56:29.016Z,97595.47
2022-11-15T18:58:56.432Z,97595.56
2022-11-15T19:01:23.665Z,97591.66
2022-11-15T19:03:50.796Z,97585.72
2022-11-15T19:06:17.980Z,97579.19
2022-11-15T19:08:45.194Z,97581.78
2022-11-15T19:11:14.852Z,97574.16
2022-11-15T19:13:42.031Z,97577.13
2022-11-15T19:16:09.155Z,97579.59
2022-11-15T19:18:36.269Z,97583.69
2022-11-15T19:21:03.420Z,97587.25
2022-11-15T19:23:30.755Z,97587.75
2022-11-15T19:25:58.918Z,97583.13
2022-11-15T19:28:26.046Z,97580.88
2022-11-15T19:30:53.237Z,97580.19
2022-11-15T19:33:26.512Z,97580.31
2022-11-15T19:35:55.083Z,97591.50
2022-11-15T19:38:22.187Z,97586.44
2022-11-15T19:40:49.506Z,97589.03
2022-11-15T19:43:16.716Z,97579.59
2022-11-15T19:45:43.882Z,97580.44
2022-11-15T19:48:11.169Z,97581.25
2022-11-15T19:50:40.336Z,97582.19
2022-11-15T19:53:07.450Z,97582.34
2022-11-15T19:55:34.637Z,97577.16
2022-11-15T19:58:01.960Z,97574.31
2022-11-15T20:00:29.287Z,97571.44
2022-11-15T20:02:56.395Z,97571.06
2022-11-15T20:05:23.573Z,97571.50
2022-11-15T20:07:50.750Z,97572.44
2022-11-15T20:10:20.674Z,97569.53
2022-11-15T20:12:48.101Z,97572.63
2022-11-15T20:15:15.210Z,97575.59
2022-11-15T20:17:42.482Z,97568.84
2022-11-15T20:20:09.619Z,97574.19
2022-11-15T20:22:36.776Z,97569.59
2022-11-15T20:25:03.917Z,97581.72
2022-11-15T20:27:31.098Z,97572.06
2022-11-15T20:29:58.567Z,97574.78
2022-11-15T20:32:25.844Z,97572.19
2022-11-15T20:34:54.217Z,97574.78
2022-11-15T20:37:21.602Z,97576.41
2022-11-15T20:39:48.685Z,97573.81
2022-11-15T20:42:15.813Z,97569.47
2022-11-15T20:44:42.980Z,97567.22
2022-11-15T20:47:10.104Z,97569.59
2022-11-15T20:49:37.208Z,97560.84
2022-11-15T20:52:04.422Z,97556.38
2022-11-15T20:54:31.494Z,97556.50
2022-11-15T20:56:58.582Z,97551.47
2022-11-15T20:59:25.698Z,97546.06
2022-11-15T21:01:53.004Z,97545.81
2022-11-15T21:04:20.194Z,97547.56
2022-11-15T21:06:48.817Z,97551.69
2022-11-15T21:09:35.254Z,97544.47
2022-11-15T21:12:11.305Z,97534.94
2022-11-15T21:14:38.381Z,97527.13
2022-11-15T21:17:05.478Z,97516.59
2022-11-15T21:19:36.874Z,97521.22
2022-11-15T21:22:04.215Z,97516.84
2022-11-15T21:24:31.336Z,97526.50
2022-11-15T21:26:58.465Z,97516.66
2022-11-15T21:29:25.583Z,97509.00
2022-11-15T21:31:53.460Z,97513.47
2022-11-15T21:34:20.582Z,97505.94
2022-11-15T21:36:47.698Z,97513.59
2022-11-15T21:39:14.844Z,97499.66
2022-11-15T21:41:42.128Z,97493.81
2022-11-15T21:44:09.231Z,97494.06
2022-11-15T21:46:37.336Z,97493.94
2022-11-15T21:49:05.068Z,97495.78
2022-11-15T21:51:32.141Z,97492.38
2022-11-15T21:53:59.227Z,97490.03
2022-11-15T21:56:26.319Z,97491.66
2022-11-15T21:58:53.875Z,97486.84
2022-11-15T22:01:39.781Z,97480.47
2022-11-15T22:04:06.917Z,97482.75
2022-11-15T22:06:34.081Z,97477.47
2022-11-15T22:09:01.189Z,97484.84
2022-11-15T22:11:28.471Z,97481.44
2022-11-15T22:13:55.558Z,97485.69
2022-11-15T22:16:22.623Z,97489.53
2022-11-15T22:18:49.715Z,97481.75
2022-11-15T22:21:16.870Z,97479.44
2022-11-15T22:23:43.975Z,97475.72
2022-11-15T22:26:11.190Z,97475.72
2022-11-15T22:28:38.366Z,97475.03
2022-11-15T22:31:05.501Z,97474.75
2022-11-15T22:33:32.638Z,97463.16
2022-11-15T22:35:59.723Z,97461.94
2022-11-15T22:38:26.862Z,97455.91
2022-11-15T22:40:53.977Z,97451.41
2022-11-15T22:43:21.081Z,97449.75
2022-11-15T22:45:48.934Z,97439.22
2022-11-15T22:48:16.019Z,97433.09
2022-11-15T22:50:43.094Z,97416.41
2022-11-15T22:53:10.195Z,97418.06
2022-11-15T22:55:37.297Z,97409.44
2022-11-15T22:58:04.469Z,97397.56
2022-11-15T23:00:31.558Z,97396.34
2022-11-15T23:02:58.779Z,97388.28
2022-11-15T23:05:25.894Z,97394.56
2022-11-15T23:07:52.982Z,97392.22
2022-11-15T23:10:39.114Z,97392.50
2022-11-15T23:13:18.309Z,97388.53
2022-11-15T23:16:04.235Z,97384.97
2022-11-15T23:18:31.744Z,97388.53
2022-11-15T23:20:59.014Z,97388.66
2022-11-15T23:23:26.192Z,97382.53
2022-11-15T23:25:53.269Z,97386.22
2022-11-15T23:28:20.385Z,97382.81
2022-11-15T23:31:06.323Z,97386.38
2022-11-15T23:33:52.023Z,97382.81
2022-11-15T23:36:19.109Z,97388.66
2022-11-15T23:38:46.198Z,97378.69
2022-11-15T23:41:13.420Z,97388.97
2022-11-15T23:43:40.537Z,97384.97
2022-11-15T23:46:07.615Z,97388.13
2022-11-15T23:48:34.956Z,97380.63
2022-11-15T23:51:02.476Z,97368.19
2022-11-15T23:53:29.566Z,97364.34
2022-11-15T23:55:56.662Z,97362.97
2022-11-15T23:58:23.766Z,97368.44
